Time;durP1;ratioP1;P1;durP2;ratioP2;P2;SDS_P1;SDS_P2;PMS_P1;PMS_P2;Temp;Humidity;BMP_temperature;BMP_pressure;BME280_temperature;BME280_humidity;BME280_pressure;Samples;Min_cycle;Max_cycle;Signal;HPM_P1;HPM_P2
2021/04/15 00:01:57;;;;;;;3.33;1.73;;;;;;;22.94;38.66;95068.53;4991880;28;20030;-72
2021/04/15 00:04:23;;;;;;;2.65;2.10;;;;;;;22.89;39.01;95063.81;5009347;28;20128;-72
2021/04/15 00:06:48;;;;;;;2.85;2.05;;;;;;;22.93;38.71;95072.50;4992227;28;20505;-73
2021/04/15 00:09:19;;;;;;;3.20;2.15;;;;;;;22.90;38.93;95073.47;5008138;28;20026;-73
2021/04/15 00:11:45;;;;;;;3.45;1.80;;;;;;;22.90;38.70;95067.28;4991020;28;20092;-72
2021/04/15 00:14:11;;;;;;;2.50;1.80;;;;;;;22.90;38.57;95068.03;5008946;28;20030;-73
2021/04/15 00:16:37;;;;;;;3.17;2.08;;;;;;;22.88;38.75;95072.50;5007894;28;20029;-72
2021/04/15 00:19:02;;;;;;;2.72;2.03;;;;;;;22.88;38.69;95070.53;5009390;28;20561;-72
2021/04/15 00:21:28;;;;;;;3.13;2.05;;;;;;;22.87;38.72;95067.53;5008745;28;20474;-72
2021/04/15 00:23:53;;;;;;;2.67;1.85;;;;;;;22.87;38.78;95064.81;5008703;28;20041;-72
2021/04/15 00:26:20;;;;;;;2.90;1.98;;;;;;;22.87;38.93;95067.53;5008799;28;20091;-72
2021/04/15 00:28:46;;;;;;;2.35;1.67;;;;;;;22.84;38.70;95054.94;5009006;28;20021;-72
2021/04/15 00:31:12;;;;;;;3.35;2.20;;;;;;;22.86;39.08;95066.09;4991334;28;20029;-73
2021/04/15 00:33:37;;;;;;;2.92;2.13;;;;;;;22.85;38.73;95070.03;5008847;28;20033;-73
2021/04/15 00:36:04;;;;;;;3.20;1.90;;;;;;;22.78;38.97;95059.69;5009026;28;20034;-72
2021/04/15 00:38:29;;;;;;;3.50;2.13;;;;;;;22.81;39.06;95059.44;4992354;28;20022;-72
2021/04/15 00:40:56;;;;;;;2.60;1.95;;;;;;;22.81;38.79;95058.69;5008885;28;20513;-72
2021/04/15 00:43:23;;;;;;;3.17;1.90;;;;;;;22.78;38.66;95054.22;4991022;28;20033;-72
2021/04/15 00:45:48;;;;;;;3.67;1.90;;;;;;;22.61;38.52;95040.00;5008465;28;20040;-72
2021/04/15 00:48:26;;;;;;;3.55;2.17;;;;;;;22.77;38.84;95050.78;4991299;28;20029;-72
2021/04/15 00:51:21;;;;;;;3.28;2.05;;;;;;;22.77;38.79;95050.06;4998774;28;20049;-72
2021/04/15 00:53:49;;;;;;;3.35;1.95;;;;;;;22.57;38.97;95023.19;4992349;28;20494;-72
2021/04/15 00:56:14;;;;;;;2.85;2.00;;;;;;;22.76;38.82;95045.84;4975159;28;20049;-72
2021/04/15 00:58:40;;;;;;;2.45;1.95;;;;;;;22.76;38.98;95056.72;4990978;28;20618;-72
2021/04/15 01:01:05;;;;;;;3.22;1.98;;;;;;;22.76;38.74;95046.56;4991563;28;20517;-72
2021/04/15 01:03:32;;;;;;;3.40;1.98;;;;;;;22.73;38.94;95047.56;5008358;28;20458;-72
2021/04/15 01:05:57;;;;;;;2.80;1.90;;;;;;;22.74;38.80;95053.78;5008602;28;20042;-72
2021/04/15 01:08:23;;;;;;;3.30;1.98;;;;;;;22.72;38.76;95050.81;5008637;28;20110;-72
2021/04/15 01:11:19;;;;;;;2.50;1.83;;;;;;;22.72;39.01;95053.53;5008326;28;20514;-72
2021/04/15 01:14:12;;;;;;;2.15;1.60;;;;;;;22.72;38.79;95050.81;4990859;28;20042;-72
2021/04/15 01:16:46;;;;;;;3.10;1.88;;;;;;;22.70;38.90;95042.41;4999510;28;20022;-73
2021/04/15 01:19:33;;;;;;;2.33;1.73;;;;;;;22.68;38.90;95050.34;4990963;28;20034;-72
2021/04/15 01:22:20;;;;;;;2.67;1.98;;;;;;;22.67;39.03;95043.41;5008484;28;20112;-72
2021/04/15 01:24:53;;;;;;;2.83;1.60;;;;;;;22.69;38.98;95046.38;5008208;28;20029;-72
2021/04/15 01:27:24;;;;;;;3.05;1.70;;;;;;;22.67;39.03;95043.41;4975026;28;20525;-72
2021/04/15 01:30:00;;;;;;;3.03;1.60;;;;;;;22.65;38.93;95051.34;5008058;28;20037;-73
2021/04/15 01:33:03;;;;;;;2.72;1.90;;;;;;;22.66;38.68;95041.94;5008376;28;20053;-72
2021/04/15 01:35:32;;;;;;;2.30;1.63;;;;;;;22.66;38.93;95058.25;4985992;28;20124;-72
2021/04/15 01:38:11;;;;;;;2.50;1.88;;;;;;;22.65;38.85;95054.06;4974675;28;20498;-72
2021/04/15 01:40:42;;;;;;;2.67;1.70;;;;;;;22.64;39.15;95047.16;4990626;28;20057;-72
2021/04/15 01:43:15;;;;;;;2.63;1.65;;;;;;;22.63;38.91;95048.38;4965760;28;20053;-72
2021/04/15 01:45:43;;;;;;;2.30;1.80;;;;;;;22.58;39.12;95030.84;4970912;28;20606;-72
2021/04/15 01:48:12;;;;;;;2.20;1.75;;;;;;;22.62;38.88;95044.19;4955747;28;20014;-71
2021/04/15 01:50:41;;;;;;;2.58;1.60;;;;;;;22.61;39.18;95042.72;4971713;28;20019;-72
2021/04/15 01:53:28;;;;;;;2.13;1.70;;;;;;;22.60;38.90;95043.94;4973238;28;20778;-72
2021/04/15 01:55:57;;;;;;;3.22;2.08;;;;;;;22.60;38.97;95038.50;4993707;28;20065;-72
2021/04/15 01:58:30;;;;;;;2.72;1.83;;;;;;;22.60;38.97;95038.50;5010281;28;20017;-72
2021/04/15 02:01:06;;;;;;;2.10;1.80;;;;;;;22.59;39.01;95032.31;4994477;28;20025;-71
2021/04/15 02:03:34;;;;;;;2.78;1.90;;;;;;;22.55;39.02;95037.28;4990822;28;20069;-71
2021/04/15 02:06:02;;;;;;;2.55;1.70;;;;;;;22.57;38.94;95034.81;4991678;28;20030;-71
2021/04/15 02:08:30;;;;;;;3.53;1.90;;;;;;;22.58;39.46;95051.88;4990790;28;20030;-71
2021/04/15 02:11:06;;;;;;;3.22;1.90;;;;;;;22.43;39.06;95026.97;4990405;28;20037;-72
2021/04/15 02:13:32;;;;;;;2.10;1.70;;;;;;;22.58;38.74;95043.72;4989460;28;20031;-72
2021/04/15 02:16:00;;;;;;;2.25;1.58;;;;;;;22.55;39.10;95047.44;5007131;28;20049;-72
2021/04/15 02:18:36;;;;;;;2.83;2.08;;;;;;;22.19;39.08;94988.72;5007623;28;20427;-72
2021/04/15 02:21:34;;;;;;;2.58;1.60;;;;;;;22.53;39.00;95049.94;4990676;28;20049;-72
2021/04/15 02:24:10;;;;;;;2.13;1.70;;;;;;;22.55;39.03;95058.31;5001762;28;20712;-72
2021/04/15 02:26:37;;;;;;;2.20;1.55;;;;;;;22.54;39.10;95059.56;4992347;28;20034;-72
2021/04/15 02:29:13;;;;;;;2.67;1.70;;;;;;;22.53;38.90;95068.97;5007363;28;20019;-71
2021/04/15 02:31:46;;;;;;;2.42;1.67;;;;;;;22.53;39.10;95068.97;4991542;28;20026;-73
2021/04/15 02:34:17;;;;;;;2.90;1.80;;;;;;;22.37;39.09;95042.56;4992239;28;20053;-72
2021/04/15 02:36:45;;;;;;;;;;;;;;;22.53;39.18;95063.53;4994055;28;20410;-72
2021/04/15 02:39:15;;;;;;;2.20;1.60;;;;;;;22.51;39.06;95064.03;5009359;28;19989;-71
2021/04/15 02:41:40;;;;;;;2.53;1.73;;;;;;;22.52;38.98;95070.22;5001166;28;20034;-72
2021/04/15 02:44:10;;;;;;;2.50;1.90;;;;;;;22.51;38.99;95063.28;5013937;28;20074;-72
2021/04/15 02:46:53;;;;;;;2.50;1.77;;;;;;;22.51;39.05;95063.28;5013209;28;20036;-72
2021/04/15 02:49:19;;;;;;;3.13;1.88;;;;;;;22.36;38.98;95046.56;5007379;28;20038;-72
2021/04/15 02:51:46;;;;;;;2.17;1.50;;;;;;;22.45;38.91;95065.28;4998521;28;20085;-72
2021/04/15 02:54:26;;;;;;;1.98;1.50;;;;;;;22.47;39.05;95068.28;4996845;28;20042;-71
2021/04/15 02:56:53;;;;;;;2.50;1.80;;;;;;;22.47;38.95;95062.81;4998180;28;20034;-73
2021/04/15 02:59:43;;;;;;;1.85;1.40;;;;;;;22.48;39.04;95064.28;5003165;28;20098;-70
2021/04/15 03:02:09;;;;;;;;;;;;;;;22.57;39.10;95069.44;4993952;28;20046;-71
2021/04/15 03:04:34;;;;;;;2.30;1.70;;;;;;;22.65;38.81;95067.69;4995104;28;19922;-72
2021/04/15 03:07:00;;;;;;;2.65;1.70;;;;;;;22.72;39.00;95070.63;5001666;28;20027;-71
2021/04/15 03:09:26;;;;;;;2.42;1.75;;;;;;;22.77;38.85;95063.66;4996271;28;20026;-71
2021/04/15 03:11:58;;;;;;;1.83;1.20;;;;;;;22.82;39.11;95065.59;4995492;28;20023;-71
2021/04/15 03:14:37;;;;;;;1.95;1.42;;;;;;;22.92;38.86;95070.97;4972429;28;20109;-71
2021/04/15 03:17:05;;;;;;;2.53;1.50;;;;;;;23.02;38.62;95064.03;4963995;28;20044;-71
2021/04/15 03:19:35;;;;;;;2.38;1.50;;;;;;;23.09;38.38;95068.94;4974611;28;20022;-70
2021/04/15 03:22:22;;;;;;;2.20;1.63;;;;;;;23.19;38.23;95067.38;4987109;28;20026;-71
2021/04/15 03:24:50;;;;;;;2.10;1.70;;;;;;;23.29;38.31;95065.81;4971450;28;20034;-71
2021/04/15 03:27:36;;;;;;;1.58;1.27;;;;;;;23.41;37.78;95072.66;4995790;28;20045;-71
2021/04/15 03:30:14;;;;;;;2.75;1.50;;;;;;;23.54;37.87;95075.50;4993773;28;20057;-71
2021/04/15 03:32:40;;;;;;;1.38;1.10;;;;;;;23.66;37.41;95071.47;4998896;28;20035;-71
2021/04/15 03:35:12;;;;;;;1.77;1.23;;;;;;;23.76;37.41;95075.34;4990917;28;20034;-71
2021/04/15 03:38:10;;;;;;;1.55;1.13;;;;;;;23.73;36.59;95051.81;4970972;28;20027;-70
2021/04/15 03:40:36;;;;;;;1.90;1.30;;;;;;;23.92;36.73;95045.91;4975780;28;20034;-70
2021/04/15 03:43:03;;;;;;;1.90;1.30;;;;;;;23.98;36.34;95043.13;4980343;28;20064;-71
2021/04/15 03:45:33;;;;;;;1.88;1.40;;;;;;;24.11;36.78;95051.41;4958248;28;20037;-71
2021/04/15 03:48:04;;;;;;;2.13;1.20;;;;;;;24.36;36.49;95067.28;4994809;28;20085;-71
2021/04/15 03:50:51;;;;;;;1.60;1.20;;;;;;;24.45;36.29;95075.13;4989460;28;20026;-70
2021/04/15 03:53:23;;;;;;;1.67;1.15;;;;;;;24.56;35.70;95064.81;4956616;28;20038;-71
2021/04/15 03:55:57;;;;;;;2.03;1.33;;;;;;;24.68;35.68;95065.38;4996636;28;20022;-71
2021/04/15 03:58:33;;;;;;;1.90;1.25;;;;;;;24.80;35.22;95072.19;4995824;28;20449;-70
2021/04/15 04:01:19;;;;;;;1.80;1.40;;;;;;;24.74;35.07;95036.75;4974448;28;20145;-70
2021/04/15 04:03:47;;;;;;;1.98;1.50;;;;;;;25.00;34.89;95064.22;4970204;28;20049;-71
2021/04/15 04:06:18;;;;;;;2.97;1.40;;;;;;;24.97;35.13;95052.31;4999630;28;20132;-71
2021/04/15 04:08:52;;;;;;;1.75;1.33;;;;;;;25.11;34.51;95064.81;4986537;28;20026;-71
2021/04/15 04:11:19;;;;;;;2.30;1.40;;;;;;;25.20;34.46;95067.16;4991697;28;20121;-70
2021/04/15 04:14:01;;;;;;;2.28;1.50;;;;;;;25.31;34.51;95067.00;4973805;28;20715;-68
2021/04/15 04:16:38;;;;;;;1.58;1.27;;;;;;;25.38;34.04;95066.38;5015335;28;20371;-71
2021/04/15 04:19:21;;;;;;;1.80;1.40;;;;;;;25.46;34.40;95061.78;4984329;28;20039;-70
2021/04/15 04:22:00;;;;;;;1.88;1.38;;;;;;;25.46;34.67;95061.78;4998950;28;20088;-72
2021/04/15 04:24:48;;;;;;;1.90;1.27;;;;;;;25.51;34.04;95066.41;4982864;28;20141;-72
2021/04/15 04:27:25;;;;;;;1.65;1.00;;;;;;;25.54;34.03;95068.13;4998272;28;20026;-71
2021/04/15 04:30:12;;;;;;;1.70;1.27;;;;;;;25.65;34.25;95078.91;4969350;28;20036;-70
2021/04/15 04:32:38;;;;;;;3.17;1.70;;;;;;;25.58;33.15;95074.03;4973622;28;20037;-70
2021/04/15 04:35:04;;;;;;;1.65;1.42;;;;;;;25.57;33.77;95072.53;4976479;28;20030;-70
2021/04/15 04:37:40;;;;;;;3.00;1.40;;;;;;;25.69;33.97;95079.34;4969268;28;20030;-70
2021/04/15 04:40:09;;;;;;;1.73;1.40;;;;;;;25.77;33.97;95075.47;4987811;28;20070;-69
2021/04/15 04:42:40;;;;;;;2.15;1.35;;;;;;;25.77;34.26;95077.44;4984255;28;20034;-69
2021/04/15 04:45:08;;;;;;;1.60;1.30;;;;;;;25.78;33.96;95065.97;4971271;28;20034;-69
2021/04/15 04:47:48;;;;;;;2.00;1.15;;;;;;;25.79;33.99;95068.19;4984654;28;20027;-71
2021/04/15 04:50:22;;;;;;;2.15;1.23;;;;;;;25.83;34.44;95063.16;4988446;28;20042;-70
2021/04/15 04:52:48;;;;;;;1.80;1.20;;;;;;;25.85;34.05;95066.09;4983316;28;20543;-70
2021/04/15 04:55:38;;;;;;;1.75;1.30;;;;;;;25.85;34.49;95068.09;4981406;28;20037;-69
2021/04/15 04:58:17;;;;;;;1.58;1.30;;;;;;;25.89;34.48;95072.00;4969846;28;20058;-69
2021/04/15 05:00:50;;;;;;;2.05;1.40;;;;;;;25.95;34.41;95075.38;4970073;28;20026;-70
2021/04/15 05:03:36;;;;;;;1.60;1.20;;;;;;;25.99;34.08;95081.28;4979156;28;20050;-71
2021/04/15 05:06:08;;;;;;;2.08;1.40;;;;;;;26.12;34.13;95089.50;4968504;28;20101;-70
2021/04/15 05:09:00;;;;;;;2.33;1.40;;;;;;;26.15;34.02;95085.72;4961548;28;20022;-72
2021/04/15 05:11:29;;;;;;;3.65;1.50;;;;;;;26.12;34.13;95094.97;4967577;28;20074;-69
2021/04/15 05:13:55;;;;;;;1.48;1.30;;;;;;;26.18;34.04;95092.88;4961561;28;20101;-73
2021/04/15 05:16:21;;;;;;;1.98;1.30;;;;;;;26.14;33.95;95086.97;4984248;28;20042;-73
2021/04/15 05:18:47;;;;;;;1.58;1.20;;;;;;;26.13;34.47;95096.47;4975588;28;20034;-73
2021/04/15 05:21:16;;;;;;;2.25;1.08;;;;;;;26.21;34.29;95094.56;4985105;28;20514;-72
2021/04/15 05:23:56;;;;;;;1.95;1.40;;;;;;;26.09;34.40;95074.13;4961819;28;20031;-73
2021/04/15 05:26:26;;;;;;;2.55;1.50;;;;;;;26.18;34.10;95092.16;4967764;28;20046;-69
2021/04/15 05:28:56;;;;;;;3.22;1.55;;;;;;;26.18;37.02;95087.41;4948920;28;20039;-69
2021/04/15 05:31:24;;;;;;;2.13;1.20;;;;;;;26.23;35.94;95094.75;4973964;28;20038;-70
2021/04/15 05:33:50;;;;;;;1.90;1.08;;;;;;;26.37;38.54;95093.56;4973488;28;20034;-70
2021/04/15 05:36:38;;;;;;;1.70;1.10;;;;;;;26.40;37.41;95087.03;4972852;28;20033;-71
2021/04/15 05:39:07;;;;;;;2.90;1.10;;;;;;;26.36;35.52;95086.59;4953863;28;20073;-69
2021/04/15 05:41:37;;;;;;;1.92;1.38;;;;;;;26.28;35.54;95096.72;4972449;28;20027;-70
2021/04/15 05:44:11;;;;;;;1.83;1.20;;;;;;;26.20;36.52;95095.81;4968939;28;20043;-70
2021/04/15 05:46:42;;;;;;;5.30;1.20;;;;;;;26.31;35.99;95095.66;4956353;28;20050;-69
2021/04/15 05:49:09;;;;;;;1.67;1.30;;;;;;;26.28;35.40;95102.19;4970425;28;20030;-72
2021/04/15 05:51:41;;;;;;;2.67;1.40;;;;;;;26.25;35.16;95102.44;4971487;28;20081;-70
2021/04/15 05:54:09;;;;;;;2.20;1.35;;;;;;;26.25;35.02;95096.97;4963950;28;20062;-70
2021/04/15 05:57:06;;;;;;;1.95;1.10;;;;;;;26.18;35.04;95095.63;4969323;28;20035;-70
2021/04/15 05:59:53;;;;;;;2.33;1.20;;;;;;;26.17;34.88;95102.34;4962321;28;20049;-71
2021/04/15 06:02:36;;;;;;;2.50;1.30;;;;;;;26.18;34.97;95098.34;4969519;28;20022;-70
2021/04/15 06:05:26;;;;;;;1.77;1.10;;;;;;;26.26;34.51;95109.41;4982352;28;20108;-70
2021/04/15 06:07:52;;;;;;;;;;;;;;;26.14;34.57;95100.66;4987906;28;20084;-70
2021/04/15 06:10:21;;;;;;;1.65;1.27;;;;;;;25.94;34.87;95084.84;4987858;28;19914;-70
2021/04/15 06:13:18;;;;;;;2.38;1.20;;;;;;;26.17;34.64;95102.34;4982862;28;20590;-71
2021/04/15 06:15:52;;;;;;;1.85;1.30;;;;;;;26.23;34.34;95097.50;5010668;28;20029;-70
2021/04/15 06:19:02;;;;;;;1.77;1.20;;;;;;;26.22;34.19;95098.78;5009365;28;20041;-70
2021/04/15 06:21:34;;;;;;;1.65;1.13;;;;;;;26.12;34.15;95089.50;4948799;28;20035;-70
2021/04/15 06:24:05;;;;;;;1.70;1.20;;;;;;;26.38;34.11;95100.47;4930308;28;20022;-71
2021/04/15 06:26:40;;;;;;;1.70;1.15;;;;;;;26.39;34.00;95096.50;4971006;28;20049;-71
2021/04/15 06:29:08;;;;;;;2.10;1.38;;;;;;;26.39;33.95;95101.97;4997115;28;20434;-71
2021/04/15 06:31:38;;;;;;;2.65;1.23;;;;;;;26.41;33.93;95105.66;4999185;28;20026;-70
2021/04/15 06:34:07;;;;;;;1.65;1.10;;;;;;;26.41;34.01;95096.69;4980431;28;20082;-70
2021/04/15 06:36:58;;;;;;;2.15;1.30;;;;;;;26.44;33.91;95103.84;4993664;28;20030;-70
2021/04/15 06:39:31;;;;;;;1.88;1.38;;;;;;;26.40;33.78;95097.97;4995618;28;20083;-70
2021/04/15 06:42:05;;;;;;;1.85;1.30;;;;;;;26.43;33.90;95096.91;5004635;28;20034;-70
2021/04/15 06:44:49;;;;;;;2.00;1.27;;;;;;;26.44;33.83;95093.66;4995273;28;20096;-70
2021/04/15 06:47:28;;;;;;;1.58;1.20;;;;;;;26.29;33.86;95066.06;5003380;28;20030;-70
2021/04/15 06:50:11;;;;;;;1.73;1.30;;;;;;;26.47;33.95;95097.31;4985210;28;20065;-71
2021/04/15 06:52:58;;;;;;;1.55;1.20;;;;;;;26.48;33.60;95093.34;4998278;28;20022;-72
2021/04/15 06:55:30;;;;;;;2.47;2.00;;;;;;;26.42;32.16;95089.97;4999573;28;20033;-70
2021/04/15 06:58:19;;;;;;;3.55;1.25;;;;;;;26.44;33.48;95087.41;4995814;28;20035;-70
2021/04/15 07:00:53;;;;;;;3.25;1.27;;;;;;;26.53;33.23;95106.16;4996838;28;20870;-71
2021/04/15 07:03:35;;;;;;;2.28;1.33;;;;;;;26.60;33.08;95100.78;4996950;28;20049;-70
2021/04/15 07:06:07;;;;;;;3.20;1.35;;;;;;;26.78;33.33;95105.41;5000306;28;20029;-70
2021/04/15 07:09:06;;;;;;;2.08;1.30;;;;;;;26.87;32.80;95113.94;5016732;28;20029;-72
2021/04/15 07:12:09;;;;;;;1.60;1.13;;;;;;;26.48;33.19;95065.94;5013616;28;20491;-70
2021/04/15 07:14:44;;;;;;;3.35;1.40;;;;;;;26.70;33.18;95110.06;4997665;28;20041;-71
2021/04/15 07:17:47;;;;;;;2.67;1.33;;;;;;;26.76;33.16;95116.91;5020143;28;20065;-72
2021/04/15 07:20:35;;;;;;;1.92;1.27;;;;;;;26.90;32.99;95118.38;4999945;28;20042;-71
2021/04/15 07:23:03;;;;;;;1.98;1.30;;;;;;;26.81;32.96;95120.78;4988569;28;20034;-71
2021/04/15 07:25:35;;;;;;;1.80;1.30;;;;;;;26.82;32.92;95112.03;5012502;28;20042;-72
2021/04/15 07:28:22;;;;;;;2.30;1.48;;;;;;;26.96;33.04;95115.53;5017102;28;20404;-72
2021/04/15 07:31:32;;;;;;;3.40;1.45;;;;;;;26.84;33.06;95114.97;5007792;28;20030;-71
2021/04/15 07:34:37;;;;;;;2.22;1.30;;;;;;;26.72;33.10;95109.53;4930146;28;20129;-71
2021/04/15 07:37:40;;;;;;;2.72;1.63;;;;;;;26.66;33.63;95119.88;4932217;29;20023;-71
2021/04/15 07:40:17;;;;;;;1.95;1.33;;;;;;;26.57;33.28;95128.50;5007741;28;20088;-71
2021/04/15 07:42:49;;;;;;;2.35;1.63;;;;;;;26.42;33.60;95131.03;5005592;28;20021;-71
2021/04/15 07:45:23;;;;;;;1.92;1.30;;;;;;;26.34;33.63;95119.25;5009325;28;20105;-70
2021/04/15 07:48:07;;;;;;;2.40;1.55;;;;;;;26.34;33.53;95127.47;5013769;28;20087;-71
2021/04/15 07:51:02;;;;;;;2.15;1.40;;;;;;;26.22;33.77;95130.88;5007082;28;20048;-71
2021/04/15 07:53:58;;;;;;;2.63;1.52;;;;;;;26.13;33.97;95129.31;4981615;28;20112;-70
2021/04/15 07:56:45;;;;;;;2.78;1.73;;;;;;;26.04;33.72;95140.66;5007157;28;20116;-71
2021/04/15 07:59:25;;;;;;;2.45;1.70;;;;;;;25.99;34.07;95136.03;5003238;28;20038;-71
2021/04/15 08:02:03;;;;;;;2.13;1.48;;;;;;;25.95;34.10;95140.34;4996224;28;20796;-70
2021/04/15 08:04:56;;;;;;;2.88;1.63;;;;;;;25.89;33.76;95137.69;4984794;28;20058;-70
2021/04/15 08:07:36;;;;;;;1.58;1.30;;;;;;;25.76;34.19;95144.38;5006132;28;20550;-71
2021/04/15 08:10:13;;;;;;;;;;;;;;;25.71;34.18;95139.72;4989889;28;20021;-70
2021/04/15 08:12:57;;;;;;;2.03;1.50;;;;;;;25.63;34.41;95136.09;4988662;28;19929;-71
2021/04/15 08:15:54;;;;;;;2.60;1.45;;;;;;;25.57;34.42;95144.38;5011250;28;20033;-70
2021/04/15 08:18:22;;;;;;;2.15;1.35;;;;;;;25.57;34.58;95140.91;5008877;28;20030;-69
2021/04/15 08:21:08;;;;;;;2.63;1.63;;;;;;;25.50;34.46;95138.78;5014585;28;20064;-70
2021/04/15 08:23:43;;;;;;;2.60;1.60;;;;;;;25.41;34.90;95144.63;4991319;28;20561;-70
2021/04/15 08:26:37;;;;;;;2.10;1.50;;;;;;;25.40;34.94;95156.84;5014958;28;20525;-70
2021/04/15 08:29:26;;;;;;;2.05;1.50;;;;;;;25.32;34.51;95145.75;5003330;28;20019;-70
2021/04/15 08:32:29;;;;;;;2.53;1.77;;;;;;;25.34;34.63;95142.50;5001175;28;20033;-70
2021/04/15 08:35:42;;;;;;;2.88;1.63;;;;;;;25.34;34.79;95137.03;5006369;28;20470;-69
2021/04/15 08:38:30;;;;;;;2.80;1.50;;;;;;;25.27;34.60;95143.09;4955465;28;20042;-70
2021/04/15 08:40:58;;;;;;;1.75;1.35;;;;;;;25.22;35.05;95140.44;4994259;28;20026;-70
2021/04/15 08:43:33;;;;;;;2.53;1.67;;;;;;;25.17;34.62;95136.53;4991170;28;20095;-70
2021/04/15 08:46:16;;;;;;;1.70;1.40;;;;;;;25.13;35.24;95141.56;4990719;28;20108;-70
2021/04/15 08:48:51;;;;;;;2.25;1.63;;;;;;;25.09;35.16;95138.38;5008681;28;20026;-70
2021/04/15 08:51:40;;;;;;;2.05;1.45;;;;;;;24.91;34.96;95114.47;4991170;28;20037;-70
2021/04/15 08:54:24;;;;;;;2.13;1.60;;;;;;;25.05;35.04;95132.47;4980918;28;20041;-70
2021/04/15 08:57:16;;;;;;;2.15;1.60;;;;;;;24.97;34.77;95141.75;5008708;28;20034;-70
2021/04/15 08:59:53;;;;;;;3.45;2.03;;;;;;;24.94;34.99;95132.56;4999978;28;20033;-72
2021/04/15 09:02:31;;;;;;;2.42;1.60;;;;;;;24.95;34.89;95136.78;4991342;28;20461;-70
2021/04/15 09:04:56;;;;;;;2.08;1.60;;;;;;;24.93;35.39;95136.59;5006638;28;20079;-71
2021/04/15 09:07:59;;;;;;;2.58;1.42;;;;;;;24.96;35.51;95146.47;5004012;28;20034;-73
2021/04/15 09:10:51;;;;;;;2.88;1.42;;;;;;;25.02;34.91;95130.78;4948084;28;20118;-68
2021/04/15 09:13:49;;;;;;;1.83;1.38;;;;;;;25.03;35.02;95140.44;5000799;28;20130;-72
2021/04/15 09:16:33;;;;;;;3.40;1.42;;;;;;;25.05;35.18;95137.94;4998539;28;20056;-71
2021/04/15 09:19:15;;;;;;;2.40;1.65;;;;;;;25.07;35.32;95132.69;4989468;28;20034;-69
2021/04/15 09:22:19;;;;;;;2.08;1.55;;;;;;;25.03;34.86;95124.03;5005822;28;20117;-70
2021/04/15 09:24:50;;;;;;;2.35;1.60;;;;;;;25.11;35.20;95124.94;4987710;28;20111;-72
2021/04/15 09:27:34;;;;;;;3.15;1.60;;;;;;;25.16;35.26;95121.38;4990427;28;20037;-71
2021/04/15 09:30:38;;;;;;;3.00;1.60;;;;;;;25.22;35.71;95113.13;5004768;28;20088;-74
2021/04/15 09:33:09;;;;;;;2.22;1.58;;;;;;;25.27;35.50;95126.69;5005040;28;20057;-69
2021/04/15 09:35:56;;;;;;;2.33;1.52;;;;;;;25.38;35.75;95115.59;4989772;28;20036;-73
2021/04/15 09:38:46;;;;;;;2.13;1.45;;;;;;;25.45;35.44;95106.78;5021455;28;20052;-72
2021/04/15 09:41:27;;;;;;;;;;;;;;;25.49;35.50;95110.69;5006442;28;20037;-73
2021/04/15 09:43:58;;;;;;;2.20;1.40;;;;;;;25.54;35.70;95106.41;5022793;28;20022;-74
2021/04/15 09:46:51;;;;;;;1.98;1.60;;;;;;;25.62;35.73;95107.25;4973570;28;20574;-73
2021/04/15 09:49:26;;;;;;;3.38;1.50;;;;;;;25.64;35.92;95099.28;4988385;28;20026;-73
2021/04/15 09:52:20;;;;;;;2.83;1.50;;;;;;;25.74;35.52;95092.16;4987813;28;20026;-74
2021/04/15 09:55:14;;;;;;;3.05;1.30;;;;;;;25.59;35.64;95064.53;5001900;28;20034;-72
2021/04/15 09:57:50;;;;;;;2.33;1.50;;;;;;;25.85;35.55;95098.94;5002667;28;20037;-74
2021/04/15 10:00:28;;;;;;;1.90;1.48;;;;;;;25.91;35.70;95096.84;4971246;28;20041;-74
2021/04/15 10:03:27;;;;;;;3.47;1.60;;;;;;;25.88;35.40;95103.34;5002303;28;20025;-72
2021/04/15 10:06:19;;;;;;;1.77;1.58;;;;;;;26.04;35.12;95094.13;5002139;28;20524;-73
2021/04/15 10:08:59;;;;;;;2.80;1.63;;;;;;;26.16;34.88;95100.88;4996191;28;20042;-72
2021/04/15 10:12:00;;;;;;;1.98;1.67;;;;;;;26.22;34.77;95087.84;5010963;28;20036;-74
2021/04/15 10:14:57;;;;;;;2.83;1.90;;;;;;;26.23;34.72;95089.28;4973776;28;20033;-73
2021/04/15 10:17:48;;;;;;;2.00;1.40;;;;;;;26.32;34.64;95083.41;5006086;28;20113;-74
2021/04/15 10:20:42;;;;;;;2.38;1.73;;;;;;;26.36;34.80;95086.59;4977863;28;20069;-71
2021/04/15 10:23:22;;;;;;;2.22;1.58;;;;;;;26.36;34.69;95094.81;5011384;28;20022;-69
2021/04/15 10:26:01;;;;;;;1.83;1.63;;;;;;;26.38;34.30;95095.00;5007601;28;20045;-70
2021/04/15 10:28:39;;;;;;;2.07;1.53;;;;;;;26.41;34.50;95094.72;4994178;28;20014;-80
2021/04/15 10:31:49;;;;;;;2.80;1.70;;;;;;;26.43;34.48;95085.97;5009157;28;20277;-81
2021/04/15 10:34:39;;;;;;;2.35;1.60;;;;;;;26.53;34.26;95084.25;5000525;28;20042;-76
2021/04/15 10:37:13;;;;;;;1.83;1.58;;;;;;;26.59;34.26;95082.16;4964773;28;20809;-87
2021/04/15 10:40:02;;;;;;;1.52;1.30;;;;;;;26.64;34.17;95075.84;5012397;28;20510;-80
2021/04/15 10:43:04;;;;;;;2.13;1.80;;;;;;;26.70;34.16;95081.94;5026425;28;20555;-77
2021/04/15 10:46:00;;;;;;;3.10;1.50;;;;;;;26.73;34.17;95075.41;5019836;28;20065;-74
2021/04/15 10:48:51;;;;;;;2.58;1.50;;;;;;;26.75;33.92;95073.59;5024973;28;20025;-74
2021/04/15 10:51:28;;;;;;;3.10;1.60;;;;;;;26.81;33.91;95066.72;5023477;28;20028;-74
2021/04/15 10:54:17;;;;;;;2.80;1.95;;;;;;;26.82;33.15;95076.41;5022663;28;20040;-72
2021/04/15 10:56:44;;;;;;;2.60;1.55;;;;;;;26.68;33.62;95048.84;5011069;28;20033;-76
2021/04/15 10:59:39;;;;;;;3.00;1.95;;;;;;;26.95;33.81;95065.47;5002625;28;20096;-71
2021/04/15 11:02:15;;;;;;;3.42;1.88;;;;;;;26.87;33.59;95064.59;5010127;28;20046;-71
2021/04/15 11:04:41;;;;;;;2.28;1.50;;;;;;;26.82;33.73;95062.72;5027180;28;20053;-71
2021/04/15 11:07:20;;;;;;;2.35;1.90;;;;;;;26.84;33.73;95051.94;5035632;28;20041;-71
2021/04/15 11:09:47;;;;;;;2.97;1.80;;;;;;;26.82;33.54;95057.22;4993430;28;20030;-71
2021/04/15 11:12:15;;;;;;;3.53;1.73;;;;;;;26.74;33.88;95052.94;5017070;28;20107;-71
2021/04/15 11:14:44;;;;;;;2.53;1.65;;;;;;;26.69;33.47;95064.75;4971489;28;20052;-71
2021/04/15 11:17:23;;;;;;;3.80;2.03;;;;;;;26.63;33.73;95055.19;5009995;28;20566;-71
2021/04/15 11:19:49;;;;;;;3.30;2.00;;;;;;;26.56;33.89;95055.81;5016280;28;20526;-71
2021/04/15 11:22:18;;;;;;;4.40;1.90;;;;;;;26.45;34.02;95056.03;4991922;28;20017;-71
2021/04/15 11:24:43;;;;;;;3.75;1.98;;;;;;;26.47;33.83;95053.50;5002050;28;20034;-71
2021/04/15 11:27:09;;;;;;;5.18;2.03;;;;;;;26.30;33.67;95045.63;4986303;28;20033;-71
2021/04/15 11:29:46;;;;;;;3.08;2.10;;;;;;;26.18;33.98;95032.66;4975116;28;20035;-71
2021/04/15 11:32:29;;;;;;;3.67;2.03;;;;;;;26.12;33.92;95034.75;5001412;28;20030;-71
2021/04/15 11:35:13;;;;;;;3.78;2.10;;;;;;;26.16;34.28;95040.66;4973116;28;20038;-71
2021/04/15 11:37:40;;;;;;;2.67;2.00;;;;;;;26.08;34.06;95039.78;5000982;28;20060;-71
2021/04/15 11:40:35;;;;;;;4.30;1.83;;;;;;;25.99;34.39;95048.44;4953114;28;20470;-71
2021/04/15 11:43:01;;;;;;;3.60;2.10;;;;;;;25.97;34.24;95045.50;4986136;28;20566;-71
2021/04/15 11:45:33;;;;;;;4.68;2.30;;;;;;;25.75;34.15;95006.13;4985274;28;20037;-71
2021/04/15 11:48:12;;;;;;;3.00;2.00;;;;;;;25.89;34.29;95039.16;4979658;28;20033;-72
2021/04/15 11:50:37;;;;;;;3.45;2.28;;;;;;;25.63;34.44;95010.28;4979031;28;20045;-71
2021/04/15 11:53:23;;;;;;;3.35;2.20;;;;;;;25.79;34.73;95040.09;4958596;28;20052;-71
2021/04/15 11:55:48;;;;;;;4.78;2.30;;;;;;;25.73;34.41;95041.47;4990574;28;20034;-70
2021/04/15 11:58:29;;;;;;;4.78;2.25;;;;;;;25.69;34.61;95041.03;4992458;28;20013;-72
2021/04/15 12:00:58;;;;;;;2.35;1.80;;;;;;;25.63;34.47;95034.91;4970336;28;20065;-70
2021/04/15 12:03:26;;;;;;;4.55;2.25;;;;;;;25.64;34.43;95028.19;4971663;28;20042;-71
2021/04/15 12:05:52;;;;;;;3.17;1.95;;;;;;;25.59;34.89;95027.00;4985543;28;20111;-73
2021/04/15 12:08:30;;;;;;;5.07;2.25;;;;;;;25.56;34.61;95027.28;5004481;28;20081;-71
2021/04/15 12:11:00;;;;;;;4.30;2.00;;;;;;;25.51;34.72;95030.88;4988610;28;20100;-71
2021/04/15 12:13:50;;;;;;;5.88;2.00;;;;;;;25.40;34.88;95042.00;5003719;28;20037;-71
2021/04/15 12:16:35;;;;;;;5.63;1.90;;;;;;;25.41;34.81;95038.00;4972473;28;20093;-71
2021/04/15 12:19:02;;;;;;;4.07;2.30;;;;;;;25.37;34.88;95043.03;4982689;28;20104;-70
2021/04/15 12:21:40;;;;;;;3.47;1.88;;;;;;;25.35;35.04;95042.81;4972514;28;20140;-71
2021/04/15 12:24:09;;;;;;;4.18;2.10;;;;;;;25.31;34.84;95045.84;4979716;28;20027;-70